Time;durP1;ratioP1;P1;durP2;ratioP2;P2;SDS_P1;SDS_P2;PMS_P1;PMS_P2;Temp;Humidity;BMP_temperature;BMP_pressure;BME280_temperature;BME280_humidity;BME280_pressure;Samples;Min_cycle;Max_cycle;Signal;HPM_P1;HPM_P2
2022/04/28 00:00:56;;;;;;;13.00;7.53;;;;;;;6.69;66.59;102675.91;4985835;28;20839;-85
2022/04/28 00:03:21;;;;;;;12.73;7.63;;;;;;;6.66;67.46;102669.75;4984133;28;20038;-85
2022/04/28 00:05:46;;;;;;;11.02;7.25;;;;;;;6.64;66.95;102671.50;4981131;28;20082;-85
2022/04/28 00:08:12;;;;;;;13.70;7.35;;;;;;;6.62;67.55;102666.25;4985079;28;20031;-85
2022/04/28 00:10:39;;;;;;;14.52;7.20;;;;;;;6.60;67.30;102673.28;4982993;28;20065;-85
2022/04/28 00:13:06;;;;;;;12.40;7.35;;;;;;;6.49;67.62;102678.66;4989279;28;20439;-85
2022/04/28 00:15:32;;;;;;;16.52;7.50;;;;;;;6.43;67.96;102683.94;4984738;28;20033;-85
2022/04/28 00:17:57;;;;;;;13.18;7.25;;;;;;;6.38;68.11;102679.56;4973846;28;20110;-85
2022/04/28 00:20:23;;;;;;;13.15;7.32;;;;;;;6.31;68.40;102681.38;4981676;28;20443;-85
2022/04/28 00:22:48;;;;;;;17.05;7.85;;;;;;;6.33;68.69;102682.25;4980317;28;20036;-85
2022/04/28 00:25:14;;;;;;;12.70;7.68;;;;;;;6.23;68.86;102672.59;4969104;28;20061;-85
2022/04/28 00:27:39;;;;;;;11.55;7.60;;;;;;;6.23;69.04;102685.81;4969796;28;20157;-85
2022/04/28 00:30:06;;;;;;;11.18;7.07;;;;;;;6.15;69.14;102683.19;4984507;28;20117;-85
2022/04/28 00:32:31;;;;;;;13.85;7.28;;;;;;;6.09;69.09;102674.38;4988482;28;20089;-85
2022/04/28 00:34:57;;;;;;;12.63;7.18;;;;;;;6.12;69.27;102675.25;4980245;28;20074;-85
2022/04/28 00:37:22;;;;;;;15.70;7.97;;;;;;;6.01;69.32;102669.13;4978550;28;20034;-85
2022/04/28 00:39:48;;;;;;;16.50;7.70;;;;;;;5.97;69.81;102670.00;4985256;28;20027;-85
2022/04/28 00:42:15;;;;;;;14.63;8.68;;;;;;;5.97;69.75;102673.53;4986395;28;20310;-85
2022/04/28 00:44:41;;;;;;;15.25;8.10;;;;;;;5.96;70.02;102679.72;4983100;28;20041;-85
2022/04/28 00:47:08;;;;;;;15.68;8.35;;;;;;;5.98;69.85;102671.78;4985821;28;20072;-85
2022/04/28 00:52:17;;;;;;;14.00;7.25;;;;;;;5.93;69.99;102666.50;4981224;28;20716;-85
2022/04/28 00:54:45;;;;;;;10.85;7.47;;;;;;;5.94;70.13;102670.03;4997600;28;20030;-85
2022/04/28 00:57:11;;;;;;;15.85;7.72;;;;;;;5.88;70.44;102673.53;4982421;28;20034;-85
2022/04/28 00:59:39;;;;;;;13.93;7.78;;;;;;;5.90;70.29;102673.53;4983528;28;20065;-85
2022/04/28 01:02:09;;;;;;;12.30;7.30;;;;;;;5.84;70.58;102674.41;4987158;28;20034;-85
2022/04/28 01:04:35;;;;;;;12.45;7.82;;;;;;;5.88;70.31;102670.88;4982131;28;20131;-85
2022/04/28 01:07:00;;;;;;;15.55;8.13;;;;;;;5.87;70.27;102673.53;4976872;28;20118;-85
2022/04/28 01:09:26;;;;;;;16.15;8.02;;;;;;;5.85;70.49;102665.63;4977631;28;20055;-85
2022/04/28 01:11:51;;;;;;;12.57;7.80;;;;;;;5.83;70.41;102670.03;4978763;28;20053;-85
2022/04/28 01:14:16;;;;;;;12.20;8.07;;;;;;;5.80;70.73;102670.00;4982951;28;20236;-85
2022/04/28 01:16:41;;;;;;;17.83;8.38;;;;;;;5.83;70.53;102677.94;4986031;28;20262;-85
2022/04/28 01:19:07;;;;;;;15.23;8.80;;;;;;;5.81;70.54;102677.09;4985216;28;20046;-85
2022/04/28 01:21:32;;;;;;;13.68;8.35;;;;;;;5.80;70.64;102677.06;4987951;28;20056;-84
2022/04/28 01:23:58;;;;;;;14.77;7.63;;;;;;;5.73;70.79;102668.28;4987802;28;20513;-85
2022/04/28 01:26:30;;;;;;;14.23;7.78;;;;;;;5.71;70.81;102670.03;4986787;28;20558;-85
2022/04/28 01:28:55;;;;;;;13.93;7.95;;;;;;;5.64;71.13;102669.19;4986570;28;20247;-85
2022/04/28 01:31:21;;;;;;;17.10;8.85;;;;;;;5.65;71.03;102675.34;4986641;28;20529;-85
2022/04/28 01:33:46;;;;;;;14.02;7.85;;;;;;;5.56;71.30;102660.38;4984425;28;20035;-85
2022/04/28 01:36:11;;;;;;;16.02;8.60;;;;;;;5.57;71.52;102674.47;4987872;28;20415;-85
2022/04/28 01:38:37;;;;;;;14.07;8.43;;;;;;;5.57;71.48;102675.34;4987242;28;20030;-85
2022/04/28 01:41:02;;;;;;;12.38;8.27;;;;;;;5.53;71.60;102670.06;4987477;28;20044;-86
2022/04/28 01:43:27;;;;;;;13.15;8.48;;;;;;;5.56;71.38;102670.03;4982750;28;20476;-85
2022/04/28 01:45:52;;;;;;;13.75;7.68;;;;;;;5.49;71.65;102666.56;4977306;28;20181;-85
2022/04/28 01:48:18;;;;;;;11.45;8.05;;;;;;;5.45;71.87;102678.88;4982108;28;20022;-85
2022/04/28 01:54:57;;;;;;;14.80;8.27;;;;;;;5.43;71.92;102670.09;4980943;28;20046;-85
2022/04/28 01:56:15;;;;;;;14.15;8.82;;;;;;;5.34;72.10;102664.78;4991305;28;20100;-85
2022/04/28 01:58:40;;;;;;;14.77;8.32;;;;;;;5.35;72.26;102669.22;4982153;28;20026;-85
2022/04/28 02:01:07;;;;;;;15.10;7.95;;;;;;;5.28;72.41;102664.78;4980351;28;20401;-85
2022/04/28 02:03:32;;;;;;;17.20;8.25;;;;;;;5.27;72.41;102663.03;4983605;28;20042;-85
2022/04/28 02:05:58;;;;;;;15.65;8.52;;;;;;;5.28;72.59;102680.63;4979493;28;20027;-85
2022/04/28 02:08:24;;;;;;;17.23;8.73;;;;;;;5.24;72.71;102674.47;4978325;28;20108;-84
2022/04/28 02:10:49;;;;;;;12.52;8.40;;;;;;;5.19;73.01;102670.06;4968445;28;20329;-85
2022/04/28 02:13:15;;;;;;;14.65;8.23;;;;;;;5.14;72.98;102671.81;4968699;28;20037;-85
2022/04/28 02:15:40;;;;;;;15.35;9.20;;;;;;;5.14;73.20;102674.44;4981176;28;20395;-85
2022/04/28 02:18:05;;;;;;;18.30;9.75;;;;;;;5.11;73.08;102671.84;4979322;28;20031;-85
2022/04/28 02:20:31;;;;;;;19.08;9.82;;;;;;;5.10;73.56;102680.59;4981768;28;20022;-85
2022/04/28 02:22:58;;;;;;;13.98;8.50;;;;;;;5.04;73.33;102670.94;4980779;28;20109;-85
2022/04/28 02:25:24;;;;;;;18.20;9.45;;;;;;;5.04;73.32;102670.06;4988989;28;20642;-85
2022/04/28 02:27:50;;;;;;;15.85;9.48;;;;;;;5.01;73.50;102676.19;4995005;28;20037;-85
2022/04/28 02:30:15;;;;;;;20.52;10.20;;;;;;;5.00;73.65;102679.72;4984267;28;20057;-85
2022/04/28 02:35:24;;;;;;;13.93;9.65;;;;;;;4.96;73.68;102681.47;4982108;28;20077;-85
2022/04/28 02:37:49;;;;;;;17.10;8.35;;;;;;;4.96;73.82;102680.59;4973867;28;20038;-85
2022/04/28 02:40:16;;;;;;;17.23;9.02;;;;;;;4.96;73.54;102677.94;4973653;28;20026;-84
2022/04/28 02:42:41;;;;;;;16.55;9.65;;;;;;;4.88;74.15;102683.22;4980442;28;20068;-85
2022/04/28 02:45:07;;;;;;;13.93;9.25;;;;;;;4.84;74.28;102677.94;4983347;28;20416;-85
2022/04/28 02:47:32;;;;;;;12.05;8.70;;;;;;;4.82;74.44;102674.41;4985048;28;20033;-85
2022/04/28 02:49:58;;;;;;;15.10;9.07;;;;;;;4.79;74.35;102664.72;4983037;28;20026;-85
2022/04/28 02:52:23;;;;;;;15.75;9.27;;;;;;;4.76;74.71;102670.00;4982523;28;20031;-85
2022/04/28 02:54:48;;;;;;;18.13;9.73;;;;;;;4.74;74.80;102664.72;4983961;28;20030;-85
2022/04/28 02:57:13;;;;;;;14.75;9.52;;;;;;;4.67;74.89;102660.28;4985933;28;20034;-85
2022/04/28 02:59:38;;;;;;;17.10;9.82;;;;;;;4.72;74.70;102671.75;4984922;28;20030;-85
2022/04/28 03:02:04;;;;;;;18.42;9.70;;;;;;;4.71;74.75;102666.47;4983722;28;20472;-86
2022/04/28 03:04:29;;;;;;;15.35;10.27;;;;;;;4.64;74.72;102662.94;4981953;28;20026;-86
2022/04/28 03:12:22;;;;;;;16.02;9.75;;;;;;;4.62;74.89;102669.97;4980299;28;20069;-86
2022/04/28 03:14:48;;;;;;;13.98;9.60;;;;;;;4.54;75.32;102668.19;4974717;28;20117;-85
2022/04/28 03:17:13;;;;;;;16.90;10.20;;;;;;;4.52;75.61;102668.19;4974137;28;20667;-85
2022/04/28 03:19:38;;;;;;;14.27;9.48;;;;;;;4.50;75.76;102669.91;4953337;28;20042;-86
2022/04/28 03:22:03;;;;;;;16.58;10.10;;;;;;;4.46;75.76;102676.06;4972363;28;20057;-85
2022/04/28 03:24:29;;;;;;;19.50;9.38;;;;;;;4.44;75.98;102660.25;4973695;28;20031;-86
2022/04/28 03:26:54;;;;;;;14.40;9.23;;;;;;;4.38;75.71;102660.19;4973603;28;20035;-85
2022/04/28 03:29:19;;;;;;;16.10;10.02;;;;;;;4.42;75.92;102672.53;4971643;28;21756;-86
2022/04/28 03:31:44;;;;;;;18.65;9.75;;;;;;;4.41;75.95;102678.69;4971510;28;20412;-85
2022/04/28 03:34:10;;;;;;;19.75;10.32;;;;;;;4.39;75.97;102671.63;4952404;28;20154;-86
2022/04/28 03:36:50;;;;;;;14.48;8.93;;;;;;;4.35;76.23;102676.03;4974915;28;20515;-85
2022/04/28 03:39:15;;;;;;;15.70;10.30;;;;;;;4.35;76.17;102677.78;4973423;28;20110;-85
2022/04/28 03:41:41;;;;;;;17.35;10.57;;;;;;;4.33;76.30;102676.88;4978223;28;20388;-86
2022/04/28 03:44:06;;;;;;;20.17;10.50;;;;;;;4.25;76.98;102664.53;4986892;28;20031;-85
2022/04/28 03:46:31;;;;;;;17.60;9.95;;;;;;;4.23;76.63;102666.31;4985767;28;20039;-85
2022/04/28 03:48:56;;;;;;;17.85;10.90;;;;;;;4.24;76.81;102678.59;4975991;28;20027;-85
2022/04/28 03:51:22;;;;;;;19.90;10.88;;;;;;;4.24;77.05;102681.25;4983132;28;20034;-86
2022/04/28 03:53:47;;;;;;;16.90;10.23;;;;;;;4.21;76.83;102678.59;4985771;28;20468;-85
2022/04/28 03:56:12;;;;;;;14.60;9.75;;;;;;;4.20;76.82;102673.31;4993289;28;20085;-85
2022/04/28 03:58:38;;;;;;;20.60;10.35;;;;;;;4.18;77.03;102680.31;4988506;28;20431;-85
2022/04/28 04:01:03;;;;;;;19.38;9.95;;;;;;;4.16;76.97;102680.31;4983085;28;20492;-85
2022/04/28 04:03:30;;;;;;;19.23;10.48;;;;;;;4.17;76.97;102689.09;4987788;28;20018;-85
2022/04/28 04:05:55;;;;;;;14.40;9.98;;;;;;;4.15;77.08;102690.88;4985728;28;20404;-86
2022/04/28 04:08:21;;;;;;;21.20;11.23;;;;;;;4.07;77.35;102682.03;4980578;28;20041;-85
2022/04/28 04:10:46;;;;;;;20.13;11.20;;;;;;;4.10;77.65;102688.22;4982763;28;20042;-86
2022/04/28 04:13:11;;;;;;;21.20;10.70;;;;;;;4.09;77.36;102685.53;4970230;28;20038;-85
2022/04/28 04:15:36;;;;;;;20.65;10.93;;;;;;;4.14;76.96;102690.00;4981631;28;20468;-86
2022/04/28 04:18:03;;;;;;;18.20;10.32;;;;;;;4.12;77.42;102694.34;4987653;28;20037;-86
2022/04/28 04:20:28;;;;;;;17.05;10.20;;;;;;;4.09;77.55;102688.19;4981370;28;20089;-86
2022/04/28 04:22:54;;;;;;;18.55;10.80;;;;;;;4.09;77.62;102685.53;4976998;28;20026;-86
2022/04/28 04:25:20;;;;;;;18.35;11.63;;;;;;;4.06;77.90;102698.72;4983896;28;20106;-86
2022/04/28 04:27:45;;;;;;;23.85;11.18;;;;;;;4.02;77.70;102695.19;4967541;28;20074;-86
2022/04/28 04:32:55;;;;;;;;;;;;;;;4.13;75.70;102708.41;4985667;28;20340;-86
2022/04/28 04:35:23;;;;;;;19.85;10.85;;;;;;;4.06;77.74;102707.50;4980652;28;19922;-85
2022/04/28 04:37:49;;;;;;;23.85;11.13;;;;;;;4.02;78.20;102699.59;4988872;28;20026;-85
2022/04/28 04:40:14;;;;;;;17.60;10.85;;;;;;;4.02;78.37;102707.50;4979749;28;20081;-86
2022/04/28 04:42:39;;;;;;;18.75;11.02;;;;;;;4.00;78.30;102708.34;4965054;28;20031;-86
2022/04/28 04:45:07;;;;;;;20.40;10.77;;;;;;;4.00;78.14;102710.97;4985780;28;20038;-86
2022/04/28 04:47:32;;;;;;;19.55;11.00;;;;;;;4.03;78.20;102710.13;4985225;28;20040;-86
2022/04/28 04:49:57;;;;;;;16.73;10.43;;;;;;;4.03;78.29;102706.59;4982670;28;20480;-85
2022/04/28 04:52:22;;;;;;;18.58;11.30;;;;;;;4.06;78.43;102715.41;4997691;28;20022;-85
2022/04/28 04:54:48;;;;;;;20.67;11.32;;;;;;;4.09;78.04;102717.16;5004471;28;20026;-85
2022/04/28 04:57:13;;;;;;;17.73;10.70;;;;;;;4.13;78.20;102718.94;4984428;28;20073;-86
2022/04/28 04:59:38;;;;;;;18.60;12.00;;;;;;;4.15;78.11;102714.59;4984223;28;20037;-86
2022/04/28 05:02:03;;;;;;;18.85;11.23;;;;;;;4.18;78.27;102719.84;4979836;28;20386;-86
2022/04/28 05:04:29;;;;;;;20.05;11.63;;;;;;;4.23;77.91;102724.28;4989829;28;20058;-85
2022/04/28 05:06:54;;;;;;;17.27;11.07;;;;;;;4.24;78.19;102733.09;4988384;28;20030;-84
2022/04/28 05:09:20;;;;;;;20.30;11.13;;;;;;;4.25;78.10;102730.44;4979614;28;20551;-84
2022/04/28 05:11:45;;;;;;;21.17;12.07;;;;;;;4.29;77.99;102739.25;4966523;28;20042;-86
2022/04/28 05:14:10;;;;;;;24.00;12.35;;;;;;;4.29;78.35;102738.38;4964414;28;20088;-85
2022/04/28 05:16:36;;;;;;;21.60;12.45;;;;;;;4.30;78.00;102738.38;4986340;28;20464;-84
2022/04/28 05:19:01;;;;;;;22.33;11.73;;;;;;;4.38;78.12;102752.47;4984246;28;20074;-84
2022/04/28 05:21:26;;;;;;;18.50;10.98;;;;;;;4.41;78.04;102741.94;4979488;28;20037;-84
2022/04/28 05:23:52;;;;;;;18.35;11.48;;;;;;;4.45;77.96;102742.84;4990412;28;20388;-85
2022/04/28 05:26:17;;;;;;;19.58;11.38;;;;;;;4.57;78.09;102748.19;4981716;28;20030;-84
2022/04/28 05:28:43;;;;;;;19.27;11.40;;;;;;;4.69;77.97;102752.63;4978298;28;20436;-84
2022/04/28 05:31:08;;;;;;;28.35;12.75;;;;;;;4.79;77.67;102751.78;4985550;28;20038;-84
2022/04/28 05:33:33;;;;;;;21.38;12.07;;;;;;;4.90;76.76;102749.19;4987810;28;20034;-85
2022/04/28 05:36:00;;;;;;;19.45;11.57;;;;;;;5.04;76.82;102751.88;4984361;28;20033;-85
2022/04/28 05:38:27;;;;;;;20.25;11.70;;;;;;;5.14;76.71;102751.91;4987031;28;20053;-85
2022/04/28 05:40:52;;;;;;;21.63;12.52;;;;;;;5.31;76.47;102749.28;4976009;28;20034;-84
2022/04/28 05:46:02;;;;;;;21.48;12.10;;;;;;;5.69;74.90;102748.44;4986933;28;20124;-85
2022/04/28 05:48:27;;;;;;;20.90;12.32;;;;;;;5.86;74.61;102756.34;4985877;28;20063;-86
2022/04/28 05:50:52;;;;;;;20.77;11.27;;;;;;;6.05;73.93;102762.53;4984839;28;20046;-85
2022/04/28 05:53:18;;;;;;;18.25;11.25;;;;;;;6.15;73.41;102766.94;4984086;28;20037;-85
2022/04/28 05:55:43;;;;;;;20.20;11.50;;;;;;;6.29;73.03;102769.53;4995721;28;20382;-85
2022/04/28 05:58:08;;;;;;;19.00;11.23;;;;;;;6.40;71.98;102768.63;4981413;28;20022;-85
2022/04/28 06:00:34;;;;;;;21.92;11.10;;;;;;;6.59;71.82;102771.19;4975004;28;20043;-87
2022/04/28 06:03:00;;;;;;;18.38;11.13;;;;;;;6.71;71.31;102766.75;4964545;28;20101;-85
2022/04/28 06:05:26;;;;;;;21.20;11.93;;;;;;;6.89;70.39;102768.41;4988737;28;20026;-86
2022/04/28 06:07:51;;;;;;;19.77;11.40;;;;;;;7.01;70.05;102778.06;4988206;28;20026;-85
2022/04/28 06:10:17;;;;;;;16.20;10.95;;;;;;;7.13;69.29;102785.06;4983076;28;20035;-84
2022/04/28 06:12:42;;;;;;;19.02;10.77;;;;;;;7.30;69.06;102777.91;4984677;28;20036;-85
2022/04/28 06:15:08;;;;;;;20.98;10.80;;;;;;;7.52;68.48;102796.31;4972495;28;20023;-86
2022/04/28 06:17:34;;;;;;;17.83;10.63;;;;;;;7.63;67.60;102774.13;4983323;28;20022;-82
2022/04/28 06:19:59;;;;;;;21.35;11.15;;;;;;;7.78;66.94;102785.53;4973315;28;20625;-84
2022/04/28 06:22:24;;;;;;;18.38;11.00;;;;;;;7.96;66.97;102788.88;4976093;28;20042;-85
2022/04/28 06:24:54;;;;;;;20.63;11.02;;;;;;;8.11;65.74;102793.19;4964449;28;20026;-85
2022/04/28 06:27:20;;;;;;;19.90;11.07;;;;;;;8.22;65.36;102796.59;4974456;28;20046;-84
2022/04/28 06:29:48;;;;;;;19.15;10.40;;;;;;;8.31;64.58;102795.63;4976719;28;20382;-85
2022/04/28 06:32:15;;;;;;;15.07;9.13;;;;;;;8.43;64.49;102792.88;4983016;28;20385;-85
2022/04/28 06:34:41;;;;;;;18.02;9.93;;;;;;;8.61;63.96;102804.16;4968884;28;20052;-84
2022/04/28 06:37:06;;;;;;;19.48;10.18;;;;;;;8.77;63.25;102794.25;4977479;28;20517;-85
2022/04/28 06:39:31;;;;;;;15.90;10.15;;;;;;;8.95;62.93;102791.38;4968996;28;20503;-85
2022/04/28 06:41:56;;;;;;;15.95;9.48;;;;;;;9.12;61.73;102801.78;4973256;28;20089;-84
2022/04/28 06:44:22;;;;;;;18.90;10.38;;;;;;;9.17;61.34;102807.91;4971593;28;20033;-84
2022/04/28 06:46:47;;;;;;;12.38;9.23;;;;;;;9.29;61.79;102809.53;4977652;28;20022;-85
2022/04/28 06:49:12;;;;;;;18.35;9.75;;;;;;;9.32;60.30;102810.38;4984972;28;20026;-85
2022/04/28 06:51:37;;;;;;;16.00;9.73;;;;;;;9.33;60.22;102809.47;4974895;28;20125;-85
2022/04/28 06:54:03;;;;;;;17.13;9.82;;;;;;;9.52;60.55;102811.84;4984490;28;20026;-85
2022/04/28 06:56:29;;;;;;;18.65;9.70;;;;;;;9.56;60.29;102800.25;4980777;28;20042;-85
2022/04/28 06:58:54;;;;;;;19.95;9.88;;;;;;;9.78;59.70;102798.13;4974837;28;20062;-84
2022/04/28 07:01:19;;;;;;;15.65;9.57;;;;;;;10.14;59.12;102818.78;4973775;28;20468;-84
2022/04/28 07:03:44;;;;;;;16.73;9.80;;;;;;;10.42;57.91;102823.66;4981881;28;20038;-86
2022/04/28 07:06:10;;;;;;;16.77;9.18;;;;;;;10.33;56.41;102819.38;4981962;28;20040;-83
2022/04/28 07:08:35;;;;;;;15.80;8.85;;;;;;;10.43;56.66;102825.41;4974008;28;20450;-83
2022/04/28 07:11:00;;;;;;;15.48;8.95;;;;;;;10.71;56.13;102825.75;4951848;28;20523;-84
2022/04/28 07:13:25;;;;;;;15.93;9.27;;;;;;;10.97;55.39;102828.75;4972213;28;20038;-83
2022/04/28 07:15:51;;;;;;;19.88;9.30;;;;;;;11.22;54.12;102828.25;4975523;28;20042;-83
2022/04/28 07:18:16;;;;;;;15.05;9.32;;;;;;;11.47;54.50;102826.78;4969981;28;20618;-83
2022/04/28 07:20:44;;;;;;;15.07;8.60;;;;;;;11.56;52.96;102824.81;4977293;28;20061;-83
2022/04/28 07:23:10;;;;;;;15.70;8.63;;;;;;;11.88;52.40;102830.28;4974863;28;20027;-82
2022/04/28 07:25:35;;;;;;;15.35;8.27;;;;;;;12.26;51.89;102836.44;4970154;28;20085;-84
2022/04/28 07:28:01;;;;;;;14.57;8.70;;;;;;;12.33;50.70;102832.69;4978862;28;20051;-84
2022/04/28 07:30:27;;;;;;;17.08;9.35;;;;;;;12.58;50.97;102842.69;4971595;28;20026;-87
2022/04/28 07:32:52;;;;;;;11.85;8.20;;;;;;;12.89;49.50;102843.59;4978573;28;20023;-84
2022/04/28 07:35:20;;;;;;;12.38;7.97;;;;;;;13.20;48.88;102846.22;4971777;28;20034;-83
2022/04/28 07:37:46;;;;;;;15.88;9.38;;;;;;;13.24;47.42;102840.84;4979912;28;20019;-87
2022/04/28 07:40:11;;;;;;;16.75;9.18;;;;;;;13.23;47.76;102849.78;4970455;28;20522;-86
2022/04/28 07:42:37;;;;;;;14.90;8.68;;;;;;;13.42;47.59;102867.91;4975339;28;20045;-84
2022/04/28 07:45:03;;;;;;;18.95;9.77;;;;;;;13.80;47.45;102852.44;4971558;28;20077;-86
2022/04/28 07:47:29;;;;;;;15.50;8.73;;;;;;;14.05;45.66;102863.22;4977871;28;20049;-89
2022/04/28 07:49:55;;;;;;;16.63;9.60;;;;;;;14.36;45.41;102859.50;4984099;28;20034;-84
2022/04/28 07:52:21;;;;;;;17.20;8.75;;;;;;;14.68;44.17;102864.63;4981263;28;20081;-89
2022/04/28 07:54:46;;;;;;;15.30;8.80;;;;;;;14.98;43.57;102859.06;4980633;28;20045;-87
2022/04/28 07:57:11;;;;;;;14.35;9.10;;;;;;;15.37;42.95;102875.44;4978676;28;20038;-88
2022/04/28 07:59:37;;;;;;;17.17;9.48;;;;;;;15.82;42.31;102857.63;4981843;28;20416;-88
2022/04/28 08:02:03;;;;;;;13.75;8.65;;;;;;;16.21;41.10;102860.44;4976425;28;20088;-89
2022/04/28 08:04:30;;;;;;;16.48;8.90;;;;;;;16.16;41.00;102866.00;4982133;28;20038;-89
2022/04/28 08:06:55;;;;;;;15.32;9.15;;;;;;;16.19;40.61;102867.72;4987630;28;20034;-88
2022/04/28 08:09:21;;;;;;;13.68;8.75;;;;;;;16.62;39.78;102864.03;4978890;28;20026;-89
2022/04/28 08:11:46;;;;;;;17.92;9.10;;;;;;;17.16;38.99;102864.31;4989744;28;20112;-88
2022/04/28 08:14:12;;;;;;;14.45;8.25;;;;;;;17.61;38.06;102871.16;4990996;28;20030;-89
2022/04/28 08:16:37;;;;;;;19.52;9.10;;;;;;;17.79;37.10;102866.72;4988838;28;20023;-87
2022/04/28 08:19:03;;;;;;;15.90;8.68;;;;;;;18.19;36.54;102884.47;4983838;28;20400;-88
2022/04/28 08:21:29;;;;;;;14.02;8.23;;;;;;;18.54;34.97;102876.41;4973562;28;20065;-88
2022/04/28 08:23:54;;;;;;;15.18;8.60;;;;;;;18.50;34.75;102881.06;4984753;28;20546;-89
2022/04/28 08:26:20;;;;;;;15.40;8.27;;;;;;;18.70;34.92;102885.47;4974163;28;20473;-88
2022/04/28 08:28:45;;;;;;;12.75;8.85;;;;;;;18.76;34.84;102881.56;4982029;28;20071;-89
2022/04/28 08:31:10;;;;;;;13.57;9.18;;;;;;;18.94;34.47;102888.69;4983097;28;20038;-88
2022/04/28 08:33:35;;;;;;;14.70;9.00;;;;;;;19.35;34.75;102885.53;4982412;28;20043;-89
2022/04/28 08:36:02;;;;;;;16.15;8.68;;;;;;;19.75;33.33;102884.19;4985532;28;20036;-88
2022/04/28 08:38:28;;;;;;;17.75;11.05;;;;;;;20.00;32.52;102880.94;4986989;28;20041;-89
2022/04/28 08:41:00;;;;;;;16.42;9.10;;;;;;;19.59;32.84;102891.38;4989349;28;20034;-88
2022/04/28 08:43:29;;;;;;;12.73;9.10;;;;;;;19.75;32.89;102899.53;4966773;28;20038;-87
2022/04/28 08:48:56;;;;;;;11.45;8.40;;;;;;;20.06;32.36;102887.81;4984497;28;20164;-88
2022/04/28 08:51:25;;;;;;;16.23;9.10;;;;;;;20.60;31.92;102889.06;4982618;28;20511;-88
2022/04/28 08:53:51;;;;;;;14.80;9.20;;;;;;;21.15;30.95;102887.47;4988538;28;20191;-89
2022/04/28 08:56:18;;;;;;;13.68;9.30;;;;;;;21.84;30.36;102889.34;4971968;28;20126;-88
2022/04/28 08:58:43;;;;;;;16.75;9.57;;;;;;;22.12;29.21;102899.25;4976892;28;20030;-90
2022/04/28 09:01:09;;;;;;;14.55;9.38;;;;;;;21.84;29.75;102889.34;4987879;28;20081;-89
2022/04/28 09:03:34;;;;;;;14.32;8.95;;;;;;;22.18;29.13;102889.81;4983112;28;20031;-89
2022/04/28 09:06:19;;;;;;;14.13;9.25;;;;;;;22.66;30.50;102891.97;4988956;28;20122;-88
2022/04/28 09:08:45;;;;;;;15.18;9.48;;;;;;;22.50;28.80;102892.19;4982138;28;20042;-88
2022/04/28 09:11:21;;;;;;;15.50;8.73;;;;;;;22.81;28.85;102899.03;4985132;28;20097;-86
2022/04/28 09:14:11;;;;;;;14.65;8.80;;;;;;;23.20;27.91;102889.06;4980932;28;20581;-86
2022/04/28 09:16:47;;;;;;;15.07;9.13;;;;;;;24.25;27.51;102881.22;4979818;28;20099;-87
2022/04/28 09:19:16;;;;;;;19.23;10.30;;;;;;;23.54;26.92;102887.47;4988344;28;20113;-89
2022/04/28 09:21:41;;;;;;;14.15;8.68;;;;;;;23.82;27.06;102891.75;4974880;28;20031;-84
2022/04/28 09:24:09;;;;;;;14.55;8.65;;;;;;;23.99;26.34;102885.91;4981653;28;20037;-85
2022/04/28 09:26:35;;;;;;;20.85;9.88;;;;;;;23.90;26.03;102896.63;4971916;28;20081;-86
2022/04/28 09:29:02;;;;;;;18.95;9.90;;;;;;;23.83;26.08;102890.78;4978417;28;20057;-87
2022/04/28 09:31:35;;;;;;;13.43;8.75;;;;;;;23.83;26.87;102886.22;4952377;28;20100;-84
2022/04/28 09:34:21;;;;;;;17.02;9.07;;;;;;;24.70;26.57;102870.47;4975896;28;20018;-88
2022/04/28 09:36:47;;;;;;;15.38;9.18;;;;;;;24.56;25.17;102878.84;4981222;28;20037;-86
2022/04/28 09:42:31;;;;;;;16.50;10.15;;;;;;;23.90;25.39;102883.03;4976806;28;20036;-88
2022/04/28 09:44:59;;;;;;;15.63;9.50;;;;;;;23.99;25.22;102874.16;4976670;28;20038;-89
2022/04/28 09:47:26;;;;;;;12.90;9.35;;;;;;;24.54;25.04;102875.41;4980684;28;20149;-89
2022/04/28 09:49:53;;;;;;;14.93;9.30;;;;;;;24.60;24.84;102880.34;4977578;28;20423;-87
2022/04/28 09:52:20;;;;;;;14.10;9.05;;;;;;;24.91;24.17;102867.88;4984612;28;20030;-89
2022/04/28 09:54:47;;;;;;;15.10;9.27;;;;;;;25.20;23.88;102872.88;4977905;28;20030;-89
2022/04/28 09:57:13;;;;;;;12.93;9.48;;;;;;;25.29;23.79;102872.13;4980603;28;20031;-88
2022/04/28 09:59:39;;;;;;;15.45;9.35;;;;;;;26.03;23.59;102872.34;4979122;28;20542;-88
2022/04/28 10:02:11;;;;;;;17.05;10.45;;;;;;;26.50;22.33;102865.59;4975145;28;20034;-89
2022/04/28 10:04:36;;;;;;;16.13;10.70;;;;;;;26.83;21.59;102869.06;4985151;28;20049;-88
2022/04/28 10:07:03;;;;;;;15.48;10.63;;;;;;;26.39;21.94;102867.47;4972196;28;20034;-89
2022/04/28 10:09:29;;;;;;;16.40;10.85;;;;;;;26.86;22.38;102865.22;4975886;28;20193;-89
2022/04/28 10:11:55;;;;;;;13.68;9.50;;;;;;;27.98;21.40;102858.69;4974634;28;20113;-89
2022/04/28 10:14:21;;;;;;;15.95;9.88;;;;;;;28.09;20.55;102861.25;4975901;28;20070;-89
2022/04/28 10:16:48;;;;;;;17.23;10.15;;;;;;;28.24;20.46;102850.72;4982481;28;20468;-89
2022/04/28 10:19:25;;;;;;;16.02;10.73;;;;;;;28.09;21.43;102858.50;4979483;28;20032;-88
2022/04/28 10:21:54;;;;;;;15.70;9.80;;;;;;;28.43;20.53;102861.72;4972464;28;20055;-88
2022/04/28 10:32:56;;;;;;;14.25;9.75;;;;;;;28.89;19.76;102851.78;4971429;28;20045;-89
2022/04/28 10:35:44;;;;;;;16.33;9.95;;;;;;;29.66;20.43;102861.53;4973112;28;20404;-90
2022/04/28 10:38:15;;;;;;;17.52;11.43;;;;;;;29.13;19.20;102856.72;4971045;28;20030;-88
2022/04/28 10:40:53;;;;;;;12.30;10.15;;;;;;;29.02;19.71;102860.56;4973193;28;20203;-89
2022/04/28 10:43:33;;;;;;;14.32;9.73;;;;;;;29.21;19.25;102854.09;4962453;28;20033;-88
2022/04/28 10:46:01;;;;;;;29.73;10.38;;;;;;;29.15;18.79;102854.72;4976325;28;20045;-88
2022/04/28 10:48:41;;;;;;;13.40;9.38;;;;;;;30.14;19.34;102841.06;4987876;28;20030;-87
2022/04/28 10:51:15;;;;;;;13.52;10.18;;;;;;;30.83;18.82;102833.84;4978502;28;20035;-87
2022/04/28 10:54:05;;;;;;;11.45;9.35;;;;;;;31.39;18.58;102842.53;4956886;28;20030;-87
2022/04/28 10:56:39;;;;;;;12.43;8.65;;;;;;;31.24;17.57;102843.16;4958624;28;20165;-87
2022/04/28 10:59:37;;;;;;;12.50;9.13;;;;;;;31.36;18.78;102842.88;4977877;28;20043;-87
2022/04/28 11:02:11;;;;;;;15.57;11.48;;;;;;;30.42;17.78;102838.19;4980166;28;20033;-87
2022/04/28 11:04:39;;;;;;;13.88;9.10;;;;;;;30.45;18.02;102837.88;4968986;28;20038;-86
2022/04/28 11:07:14;;;;;;;15.73;9.35;;;;;;;30.09;18.04;102837.03;4967585;28;20069;-87
2022/04/28 11:09:41;;;;;;;12.57;9.32;;;;;;;29.69;18.65;102842.00;4969372;28;20045;-86
2022/04/28 11:12:19;;;;;;;15.40;9.65;;;;;;;29.81;18.50;102844.53;4980039;28;20038;-88
2022/04/28 11:14:48;;;;;;;13.27;9.52;;;;;;;29.78;18.02;102829.22;4979969;28;20396;-88
2022/04/28 11:17:19;;;;;;;13.82;9.05;;;;;;;30.25;17.86;102818.84;4983529;28;20067;-92
2022/04/28 11:19:44;;;;;;;15.30;9.73;;;;;;;30.70;17.60;102823.28;4970451;28;20495;-89
2022/04/28 11:22:13;;;;;;;11.88;9.90;;;;;;;30.71;17.30;102832.38;4973998;28;20109;-87
2022/04/28 11:24:45;;;;;;;10.93;8.95;;;;;;;30.51;18.13;102832.59;4977472;28;20043;-88
2022/04/28 11:27:15;;;;;;;12.93;10.18;;;;;;;30.71;17.66;102837.88;4982617;28;20059;-88
2022/04/28 11:29:42;;;;;;;12.85;9.32;;;;;;;30.79;17.62;102826.09;4957251;28;20149;-88
2022/04/28 11:32:10;;;;;;;13.60;9.20;;;;;;;31.63;17.20;102825.22;4969964;28;20061;-88
2022/04/28 11:34:35;;;;;;;11.32;9.07;;;;;;;32.59;16.55;102814.41;4975870;28;20230;-89
2022/04/28 11:37:22;;;;;;;12.55;9.07;;;;;;;32.53;17.50;102814.25;4975647;28;20109;-87
2022/04/28 11:39:49;;;;;;;12.70;9.00;;;;;;;32.20;16.35;102815.13;4974434;28;20034;-89
2022/04/28 11:42:19;;;;;;;12.57;10.23;;;;;;;32.17;16.19;102820.97;4974224;28;20031;-92
2022/04/28 11:44:52;;;;;;;12.45;10.10;;;;;;;32.29;16.87;102818.75;4979824;28;20081;-88
2022/04/28 11:47:26;;;;;;;13.68;10.63;;;;;;;31.49;16.90;102827.59;4973005;28;20042;-88
2022/04/28 11:49:59;;;;;;;15.73;10.00;;;;;;;31.83;16.60;102823.88;4972349;28;20038;-88
2022/04/28 11:52:34;;;;;;;14.20;10.48;;;;;;;32.51;16.38;102817.19;4976799;28;20121;-88